createdAt,value
2019-05-11T00:01:33.597Z,99.90
2019-05-11T00:04:03.290Z,99.90
2019-05-11T00:06:32.710Z,99.90
2019-05-11T00:09:02.131Z,99.90
2019-05-11T00:11:31.506Z,99.90
2019-05-11T00:14:00.858Z,99.90
2019-05-11T00:16:30.176Z,99.90
2019-05-11T00:18:59.738Z,99.90
2019-05-11T00:21:29.424Z,99.90
2019-05-11T00:23:58.718Z,99.90
2019-05-11T00:26:27.970Z,99.90
2019-05-11T00:28:57.329Z,99.90
2019-05-11T00:31:26.567Z,99.90
2019-05-11T00:33:56.352Z,99.90
2019-05-11T00:36:25.565Z,99.90
2019-05-11T00:38:54.729Z,99.90
2019-05-11T00:41:24.295Z,99.90
2019-05-11T00:43:53.855Z,99.90
2019-05-11T00:46:23.037Z,99.90
2019-05-11T00:48:52.223Z,99.90
2019-05-11T00:51:21.391Z,99.90
2019-05-11T00:53:50.860Z,99.90
2019-05-11T00:56:20.109Z,99.90
2019-05-11T00:58:50.996Z,99.90
2019-05-11T01:01:20.635Z,99.90
2019-05-11T01:03:49.859Z,99.90
2019-05-11T01:06:19.100Z,99.90
2019-05-11T01:08:48.602Z,99.90
2019-05-11T01:11:17.904Z,99.90
2019-05-11T01:13:47.064Z,99.90
2019-05-11T01:16:16.596Z,99.90
2019-05-11T01:18:46.005Z,99.90
2019-05-11T01:21:15.523Z,99.90
2019-05-11T01:23:44.668Z,99.90
2019-05-11T01:26:13.913Z,99.90
2019-05-11T01:28:43.059Z,99.90
2019-05-11T01:31:12.300Z,99.90
2019-05-11T01:33:41.735Z,99.90
2019-05-11T01:36:11.487Z,99.90
2019-05-11T01:38:41.256Z,99.90
2019-05-11T01:41:10.878Z,99.90
2019-05-11T01:43:40.194Z,99.90
2019-05-11T01:46:09.554Z,99.90
2019-05-11T01:48:39.059Z,99.90
2019-05-11T01:51:08.401Z,99.90
2019-05-11T01:53:37.980Z,99.90
2019-05-11T01:56:07.653Z,99.90
2019-05-11T01:58:37.074Z,99.90
2019-05-11T02:01:06.496Z,99.90
2019-05-11T02:03:35.921Z,99.90
2019-05-11T02:06:05.510Z,99.90
2019-05-11T02:08:35.612Z,99.90
2019-05-11T02:11:15.581Z,99.90
2019-05-11T02:13:36.194Z,99.90
2019-05-11T02:16:05.540Z,99.90
2019-05-11T02:18:34.699Z,99.90
2019-05-11T02:21:03.932Z,99.90
2019-05-11T02:23:33.192Z,99.90
2019-05-11T02:26:02.438Z,99.90
2019-05-11T02:28:31.615Z,99.90
2019-05-11T02:31:00.795Z,99.90
2019-05-11T02:33:30.313Z,99.90
2019-05-11T02:35:59.841Z,99.90
2019-05-11T02:38:29.313Z,99.90
2019-05-11T02:40:58.788Z,99.90
2019-05-11T02:43:28.337Z,99.90
2019-05-11T02:45:57.494Z,99.90
2019-05-11T02:48:26.678Z,99.90
2019-05-11T02:50:56.832Z,99.90
2019-05-11T02:53:27.307Z,99.90
2019-05-11T02:55:57.099Z,99.90
2019-05-11T02:58:26.252Z,99.90
2019-05-11T03:00:55.838Z,99.90
2019-05-11T03:03:25.073Z,99.90
2019-05-11T03:05:54.579Z,99.90
2019-05-11T03:08:24.183Z,99.90
2019-05-11T03:10:53.382Z,99.90
2019-05-11T03:13:22.570Z,99.90
2019-05-11T03:15:52.297Z,99.90
2019-05-11T03:18:21.521Z,99.90
2019-05-11T03:20:51.473Z,99.90
2019-05-11T03:23:20.701Z,99.90
2019-05-11T03:25:49.866Z,99.90
2019-05-11T03:28:19.031Z,99.90
2019-05-11T03:30:48.219Z,99.90
2019-05-11T03:33:17.889Z,99.90
2019-05-11T03:35:47.133Z,99.90
2019-05-11T03:38:16.376Z,99.90
2019-05-11T03:40:45.700Z,99.90
2019-05-11T03:43:15.164Z,99.90
2019-05-11T03:45:48.900Z,99.90
2019-05-11T03:48:18.310Z,99.90
2019-05-11T03:50:47.472Z,99.90
2019-05-11T03:53:16.631Z,99.90
2019-05-11T03:55:46.499Z,99.90
2019-05-11T03:58:16.008Z,99.90
2019-05-11T04:00:45.189Z,99.90
2019-05-11T04:03:14.379Z,99.90
2019-05-11T04:05:43.555Z,99.90
2019-05-11T04:08:13.007Z,99.90
2019-05-11T04:10:42.215Z,99.90
2019-05-11T04:13:11.456Z,99.90
2019-05-11T04:15:40.710Z,99.90
2019-05-11T04:18:10.181Z,99.90
2019-05-11T04:20:39.398Z,99.90
2019-05-11T04:23:08.977Z,99.90
2019-05-11T04:25:38.171Z,99.90
2019-05-11T04:28:07.330Z,99.90
2019-05-11T04:30:36.490Z,99.90
2019-05-11T04:33:06.092Z,99.90
2019-05-11T04:35:35.318Z,99.90
2019-05-11T04:38:05.013Z,99.90
2019-05-11T04:40:34.225Z,99.90
2019-05-11T04:43:03.406Z,99.90
2019-05-11T04:45:32.560Z,99.90
2019-05-11T04:48:02.075Z,99.90
2019-05-11T04:50:31.252Z,99.90
2019-05-11T04:53:00.520Z,99.90
2019-05-11T04:55:30.686Z,99.90
2019-05-11T04:58:00.084Z,99.90
2019-05-11T05:00:29.696Z,99.90
2019-05-11T05:02:59.112Z,99.90
2019-05-11T05:05:28.560Z,99.90
2019-05-11T05:08:09.161Z,99.90
2019-05-11T05:10:30.044Z,99.90
2019-05-11T05:13:10.106Z,99.90
2019-05-11T05:15:30.406Z,99.90
2019-05-11T05:17:59.796Z,99.90
2019-05-11T05:20:29.145Z,99.90
2019-05-11T05:22:58.545Z,99.90
2019-05-11T05:25:27.886Z,99.90
2019-05-11T05:27:57.634Z,99.90
2019-05-11T05:30:26.896Z,99.90
2019-05-11T05:32:56.058Z,99.90
2019-05-11T05:35:25.320Z,99.90
2019-05-11T05:37:54.523Z,99.90
2019-05-11T05:40:23.704Z,99.90
2019-05-11T05:42:52.945Z,99.90
2019-05-11T05:45:22.209Z,99.90
2019-05-11T05:47:51.475Z,99.90
2019-05-11T05:50:21.323Z,99.90
2019-05-11T05:52:50.858Z,99.90
2019-05-11T05:55:20.191Z,99.90
2019-05-11T05:57:49.416Z,99.90
2019-05-11T06:00:19.553Z,99.90
2019-05-11T06:02:49.058Z,99.90
2019-05-11T06:05:18.559Z,99.90
2019-05-11T06:07:47.703Z,99.90
2019-05-11T06:10:17.749Z,99.90
2019-05-11T06:12:47.262Z,99.90
2019-05-11T06:15:16.701Z,99.90
2019-05-11T06:17:46.178Z,99.90
2019-05-11T06:20:15.751Z,99.90
2019-05-11T06:22:44.989Z,99.90
2019-05-11T06:25:14.868Z,99.90
2019-05-11T06:27:44.480Z,99.90
2019-05-11T06:30:14.347Z,99.90
2019-05-11T06:32:43.528Z,99.90
2019-05-11T06:35:13.634Z,99.90
2019-05-11T06:37:42.958Z,99.90
2019-05-11T06:40:12.508Z,99.90
2019-05-11T06:42:42.146Z,99.90
2019-05-11T06:45:11.662Z,99.90
2019-05-11T06:47:40.866Z,99.90
2019-05-11T06:50:10.726Z,99.90
2019-05-11T06:52:39.930Z,99.90
2019-05-11T06:55:09.104Z,99.90
2019-05-11T06:57:38.279Z,99.90
2019-05-11T07:00:08.417Z,99.90
2019-05-11T07:02:38.280Z,99.90
2019-05-11T07:05:08.274Z,99.90
2019-05-11T07:07:46.999Z,99.90
2019-05-11T07:10:09.012Z,99.90
2019-05-11T07:12:38.530Z,99.90
2019-05-11T07:15:08.479Z,99.90
2019-05-11T07:17:37.949Z,99.90
2019-05-11T07:20:08.075Z,99.90
2019-05-11T07:22:37.506Z,99.90
2019-05-11T07:25:07.431Z,99.90
2019-05-11T07:27:36.989Z,99.90
2019-05-11T07:30:06.724Z,99.90
2019-05-11T07:32:38.208Z,99.90
2019-05-11T07:35:08.434Z,99.90
2019-05-11T07:37:38.700Z,99.90
2019-05-11T07:40:08.794Z,99.90
2019-05-11T07:42:38.449Z,99.90
2019-05-11T07:45:09.073Z,99.90
2019-05-11T07:47:38.805Z,99.90
2019-05-11T07:50:09.765Z,99.90
2019-05-11T07:52:39.717Z,99.90
2019-05-11T07:55:10.021Z,99.90
2019-05-11T07:57:39.460Z,99.90
2019-05-11T08:00:09.834Z,99.90
2019-05-11T08:02:39.344Z,99.90
2019-05-11T08:05:08.883Z,99.90
2019-05-11T08:07:38.339Z,99.90
2019-05-11T08:10:08.537Z,99.90
2019-05-11T08:12:39.042Z,99.90
2019-05-11T08:15:13.202Z,99.90
2019-05-11T08:17:40.374Z,99.90
2019-05-11T08:20:10.103Z,99.90
2019-05-11T08:22:39.330Z,99.90
2019-05-11T08:25:09.318Z,99.40
2019-05-11T08:27:39.016Z,99.30
2019-05-11T08:30:09.864Z,98.50
2019-05-11T08:32:39.662Z,98.10
2019-05-11T08:35:10.461Z,98.00
2019-05-11T08:37:39.719Z,96.60
2019-05-11T08:40:09.245Z,96.60
2019-05-11T08:42:38.428Z,97.00
2019-05-11T08:45:18.976Z,96.30
2019-05-11T08:47:39.502Z,95.80
2019-05-11T08:50:09.423Z,94.60
2019-05-11T08:52:38.959Z,93.70
2019-05-11T08:55:08.487Z,93.60
2019-05-11T08:57:38.822Z,93.70
2019-05-11T09:00:13.519Z,93.70
2019-05-11T09:02:46.604Z,94.40
2019-05-11T09:05:15.661Z,95.10
2019-05-11T09:07:45.194Z,95.00
2019-05-11T09:10:14.826Z,96.10
2019-05-11T09:12:44.208Z,96.40
2019-05-11T09:15:28.884Z,97.70
2019-05-11T09:17:45.074Z,98.70
2019-05-11T09:20:15.082Z,97.90
2019-05-11T09:22:45.016Z,97.70
2019-05-11T09:25:14.413Z,97.80
2019-05-11T09:27:43.696Z,97.30
2019-05-11T09:30:14.614Z,96.50
2019-05-11T09:32:43.835Z,96.00
2019-05-11T09:35:13.152Z,94.50
2019-05-11T09:37:42.401Z,95.60
2019-05-11T09:40:12.393Z,95.90
2019-05-11T09:42:41.981Z,95.10
2019-05-11T09:45:11.703Z,94.20
2019-05-11T09:47:40.858Z,93.30
2019-05-11T09:50:11.995Z,93.40
2019-05-11T09:52:41.190Z,92.80
2019-05-11T09:55:11.317Z,91.40
2019-05-11T09:57:40.556Z,89.80
2019-05-11T10:00:10.673Z,90.10
2019-05-11T10:02:40.405Z,90.20
2019-05-11T10:05:10.347Z,88.90
2019-05-11T10:07:39.632Z,89.70
2019-05-11T10:10:09.718Z,90.60
2019-05-11T10:12:38.922Z,91.50
2019-05-11T10:15:09.168Z,93.00
2019-05-11T10:17:38.701Z,93.90
2019-05-11T10:20:09.325Z,92.20
2019-05-11T10:22:38.829Z,92.90
2019-05-11T10:25:09.298Z,91.90
2019-05-11T10:27:38.692Z,91.30
2019-05-11T10:30:08.349Z,92.10
2019-05-11T10:32:38.573Z,91.10
2019-05-11T10:35:08.305Z,91.70
2019-05-11T10:37:38.908Z,91.50
2019-05-11T10:40:09.787Z,90.90
2019-05-11T10:42:38.987Z,90.80
2019-05-11T10:45:09.045Z,92.00
2019-05-11T10:47:39.067Z,91.40
2019-05-11T10:50:09.103Z,90.80
2019-05-11T10:52:38.301Z,91.00
2019-05-11T10:55:08.787Z,91.50
2019-05-11T10:57:38.907Z,92.30
2019-05-11T11:00:10.525Z,89.30
2019-05-11T11:02:39.741Z,90.30
2019-05-11T11:05:09.707Z,90.70
2019-05-11T11:07:38.891Z,90.80
2019-05-11T11:10:09.100Z,87.50
2019-05-11T11:12:38.804Z,87.30
2019-05-11T11:15:08.487Z,86.30
2019-05-11T11:17:38.375Z,84.20
2019-05-11T11:20:08.884Z,87.30
2019-05-11T11:22:43.431Z,86.00
2019-05-11T11:25:09.889Z,87.50
2019-05-11T11:27:39.054Z,84.70
2019-05-11T11:30:09.355Z,87.50
2019-05-11T11:32:39.003Z,85.10
2019-05-11T11:35:08.777Z,85.00
2019-05-11T11:37:38.642Z,84.50
2019-05-11T11:40:08.975Z,83.50
2019-05-11T11:42:38.502Z,79.10
2019-05-11T11:45:08.956Z,82.50
2019-05-11T11:47:38.684Z,80.80
2019-05-11T11:50:09.120Z,78.20
2019-05-11T11:52:38.606Z,78.60
2019-05-11T11:55:08.512Z,79.60
2019-05-11T11:57:38.197Z,75.90
2019-05-11T12:00:09.169Z,76.70
2019-05-11T12:02:39.721Z,75.00
2019-05-11T12:05:09.062Z,75.20
2019-05-11T12:07:38.800Z,76.90
2019-05-11T12:10:09.215Z,79.50
2019-05-11T12:12:38.774Z,79.80
2019-05-11T12:15:09.050Z,76.10
2019-05-11T12:17:39.077Z,76.00
2019-05-11T12:20:09.133Z,76.40
2019-05-11T12:22:38.793Z,77.90
2019-05-11T12:25:08.771Z,76.40
2019-05-11T12:27:38.470Z,76.90
2019-05-11T12:30:09.184Z,75.10
2019-05-11T12:32:45.562Z,76.40
2019-05-11T12:35:14.892Z,76.00
2019-05-11T12:37:44.023Z,74.50
2019-05-11T12:40:15.026Z,73.70
2019-05-11T12:42:44.195Z,74.10
2019-05-11T12:45:13.670Z,71.70
2019-05-11T12:47:42.924Z,74.10
2019-05-11T12:50:14.051Z,76.60
2019-05-11T12:52:43.269Z,79.10
2019-05-11T12:55:13.630Z,77.00
2019-05-11T12:57:42.864Z,75.90
2019-05-11T13:00:12.862Z,76.30
2019-05-11T13:02:42.347Z,75.90
2019-05-11T13:05:11.899Z,77.10
2019-05-11T13:07:41.076Z,79.20
2019-05-11T13:10:10.532Z,80.20
2019-05-11T13:12:39.982Z,80.30
2019-05-11T13:15:09.455Z,83.30
2019-05-11T13:17:41.018Z,82.30
2019-05-11T13:20:12.681Z,83.50
2019-05-11T13:22:40.781Z,81.60
2019-05-11T13:25:10.444Z,83.60
2019-05-11T13:27:39.599Z,81.90
2019-05-11T13:30:09.998Z,82.30
2019-05-11T13:32:39.609Z,82.90
2019-05-11T13:35:09.362Z,80.00
2019-05-11T13:37:38.885Z,80.20
2019-05-11T13:40:09.000Z,77.90
2019-05-11T13:42:39.074Z,78.00
2019-05-11T13:45:09.278Z,78.70
2019-05-11T13:47:51.679Z,80.00
2019-05-11T13:50:10.081Z,76.70
2019-05-11T13:52:39.464Z,76.70
2019-05-11T13:55:10.548Z,76.40
2019-05-11T13:57:40.766Z,76.80
2019-05-11T14:00:11.962Z,77.50
2019-05-11T14:02:41.580Z,75.30
2019-05-11T14:05:11.184Z,74.50
2019-05-11T14:07:40.834Z,75.20
2019-05-11T14:10:10.395Z,75.00
2019-05-11T14:12:40.184Z,75.50
2019-05-11T14:15:09.637Z,77.50
2019-05-11T14:17:39.448Z,76.90
2019-05-11T14:20:09.285Z,78.60
2019-05-11T14:22:39.309Z,81.00
2019-05-11T14:25:08.778Z,81.00
2019-05-11T14:27:39.268Z,81.10
2019-05-11T14:30:10.204Z,82.40
2019-05-11T14:32:39.552Z,80.00
2019-05-11T14:35:12.064Z,80.90
2019-05-11T14:37:40.166Z,82.30
2019-05-11T14:40:09.975Z,81.00
2019-05-11T14:42:39.513Z,83.10
2019-05-11T14:45:09.027Z,85.00
2019-05-11T14:47:38.803Z,83.30
2019-05-11T14:50:09.168Z,83.50
2019-05-11T14:52:39.125Z,82.90
2019-05-11T14:55:09.163Z,81.10
2019-05-11T14:57:39.704Z,80.40
2019-05-11T15:00:10.655Z,81.50
2019-05-11T15:02:48.946Z,81.20
2019-05-11T15:05:18.503Z,83.20
2019-05-11T15:07:48.464Z,82.30
2019-05-11T15:10:19.272Z,82.60
2019-05-11T15:12:49.025Z,85.10
2019-05-11T15:15:19.748Z,86.20
2019-05-11T15:17:49.547Z,84.10
2019-05-11T15:20:19.176Z,83.80
2019-05-11T15:22:49.101Z,85.20
2019-05-11T15:25:19.945Z,84.40
2019-05-11T15:27:49.309Z,87.10
2019-05-11T15:30:18.751Z,87.20
2019-05-11T15:32:48.444Z,88.10
2019-05-11T15:35:18.615Z,88.60
2019-05-11T15:37:48.764Z,87.60
2019-05-11T15:40:19.237Z,87.60
2019-05-11T15:42:48.922Z,87.60
2019-05-11T15:45:20.018Z,86.80
2019-05-11T15:47:49.859Z,86.10
2019-05-11T15:50:21.236Z,87.30
2019-05-11T15:52:50.478Z,86.60
2019-05-11T15:55:21.010Z,86.90
2019-05-11T15:57:50.175Z,88.20
2019-05-11T16:00:20.385Z,88.80
2019-05-11T16:02:49.714Z,89.60
2019-05-11T16:05:19.965Z,89.60
2019-05-11T16:07:49.619Z,88.30
2019-05-11T16:10:19.831Z,89.80
2019-05-11T16:12:49.258Z,89.00
2019-05-11T16:15:19.850Z,90.40
2019-05-11T16:17:50.139Z,89.90
2019-05-11T16:20:19.681Z,89.30
2019-05-11T16:22:50.645Z,89.40
2019-05-11T16:25:20.278Z,90.00
2019-05-11T16:27:50.178Z,90.30
2019-05-11T16:30:21.685Z,90.20
2019-05-11T16:32:51.807Z,90.60
2019-05-11T16:35:21.008Z,90.80
2019-05-11T16:37:50.300Z,90.40
2019-05-11T16:40:20.781Z,90.90
2019-05-11T16:42:50.846Z,92.10
2019-05-11T16:45:23.626Z,91.80
2019-05-11T16:47:51.740Z,91.30
2019-05-11T16:50:20.977Z,91.30
2019-05-11T16:52:50.266Z,92.00
2019-05-11T16:55:19.506Z,92.70
2019-05-11T16:57:48.978Z,92.60
2019-05-11T17:00:19.320Z,92.30
2019-05-11T17:02:49.184Z,92.30
2019-05-11T17:05:26.623Z,92.40
2019-05-11T17:07:49.561Z,92.90
2019-05-11T17:10:19.384Z,93.20
2019-05-11T17:12:49.046Z,92.90
2019-05-11T17:15:18.883Z,93.40
2019-05-11T17:17:48.922Z,94.00
2019-05-11T17:20:19.147Z,93.50
2019-05-11T17:22:48.771Z,93.90
2019-05-11T17:25:19.228Z,93.90
2019-05-11T17:27:49.463Z,94.30
2019-05-11T17:30:20.010Z,93.70
2019-05-11T17:32:49.796Z,93.50
2019-05-11T17:35:19.420Z,93.50
2019-05-11T17:37:48.908Z,93.60
2019-05-11T17:40:23.154Z,93.40
2019-05-11T17:42:53.322Z,94.00
2019-05-11T17:45:21.198Z,94.30
2019-05-11T17:47:50.734Z,94.20
2019-05-11T17:50:20.258Z,94.60
2019-05-11T17:52:49.958Z,94.00
2019-05-11T17:55:19.462Z,94.50
2019-05-11T17:57:49.733Z,94.40
2019-05-11T18:00:20.524Z,94.40
2019-05-11T18:02:50.197Z,94.50
2019-05-11T18:05:19.723Z,94.70
2019-05-11T18:07:48.956Z,95.10
2019-05-11T18:10:18.495Z,95.70
2019-05-11T18:12:48.744Z,95.50
2019-05-11T18:15:23.274Z,95.50
2019-05-11T18:17:49.975Z,95.80
2019-05-11T18:20:21.711Z,95.90
2019-05-11T18:22:50.688Z,96.00
2019-05-11T18:25:20.060Z,96.60
2019-05-11T18:27:49.680Z,96.80
2019-05-11T18:30:19.071Z,96.70
2019-05-11T18:32:49.301Z,96.60
2019-05-11T18:35:19.408Z,96.80
2019-05-11T18:37:49.162Z,97.10
2019-05-11T18:40:19.159Z,96.90
2019-05-11T18:42:49.198Z,97.20
2019-05-11T18:45:19.461Z,97.20
2019-05-11T18:47:49.368Z,97.80
2019-05-11T18:50:29.736Z,98.10
2019-05-11T18:52:50.540Z,98.30
2019-05-11T18:55:19.817Z,98.80
2019-05-11T18:57:49.436Z,98.50
2019-05-11T19:00:19.983Z,98.90
2019-05-11T19:02:49.887Z,98.90
2019-05-11T19:05:19.903Z,99.00
2019-05-11T19:07:49.082Z,99.30
2019-05-11T19:10:18.327Z,99.60
2019-05-11T19:12:48.917Z,99.60
2019-05-11T19:15:19.136Z,99.60
2019-05-11T19:17:49.192Z,99.90
2019-05-11T19:20:18.980Z,99.90
2019-05-11T19:22:48.232Z,99.90
2019-05-11T19:25:18.234Z,99.90
2019-05-11T19:27:50.167Z,99.90
2019-05-11T19:30:19.057Z,99.90
2019-05-11T19:32:48.803Z,99.90
2019-05-11T19:35:21.301Z,99.90
2019-05-11T19:37:49.856Z,99.90
2019-05-11T19:40:19.173Z,99.90
2019-05-11T19:42:55.296Z,99.90
2019-05-11T19:45:24.803Z,99.90
2019-05-11T19:47:54.982Z,99.90
2019-05-11T19:50:24.448Z,99.90
2019-05-11T19:52:53.642Z,99.90
2019-05-11T19:55:23.242Z,99.90
2019-05-11T19:58:01.185Z,99.90
2019-05-11T20:00:30.493Z,99.90
2019-05-11T20:02:59.875Z,99.90
2019-05-11T20:05:29.085Z,99.90
2019-05-11T20:07:59.005Z,99.90
2019-05-11T20:10:29.647Z,99.90
2019-05-11T20:13:10.448Z,99.90
2019-05-11T20:15:39.900Z,99.90
2019-05-11T20:18:18.396Z,99.90
2019-05-11T20:20:53.009Z,99.90
2019-05-11T20:23:22.615Z,99.90
2019-05-11T20:26:08.904Z,99.90
2019-05-11T20:28:38.301Z,99.90
2019-05-11T20:31:08.144Z,99.90
2019-05-11T20:33:38.497Z,99.90
2019-05-11T20:36:08.695Z,99.90
2019-05-11T20:38:38.534Z,99.90
2019-05-11T20:41:08.527Z,99.90
2019-05-11T20:43:37.756Z,99.90
2019-05-11T20:46:08.241Z,99.90
2019-05-11T20:48:38.221Z,99.90
2019-05-11T20:51:08.245Z,99.90
2019-05-11T20:53:38.771Z,99.90
2019-05-11T20:56:08.677Z,99.90
2019-05-11T20:58:59.834Z,99.90
2019-05-11T21:01:29.383Z,99.90
2019-05-11T21:03:58.877Z,99.90
2019-05-11T21:06:29.493Z,99.90
2019-05-11T21:08:59.334Z,99.90
2019-05-11T21:11:28.655Z,99.90
2019-05-11T21:13:58.207Z,99.90
2019-05-11T21:16:27.832Z,99.90
2019-05-11T21:18:58.028Z,99.90
2019-05-11T21:21:27.888Z,99.90
2019-05-11T21:23:58.348Z,99.90
2019-05-11T21:26:28.228Z,99.90
2019-05-11T21:28:58.177Z,99.90
2019-05-11T21:31:28.991Z,99.90
2019-05-11T21:34:01.271Z,99.90
2019-05-11T21:36:30.539Z,99.90
2019-05-11T21:38:59.833Z,99.90
2019-05-11T21:41:31.032Z,99.90
2019-05-11T21:44:01.004Z,99.90
2019-05-11T21:46:30.568Z,99.90
2019-05-11T21:49:00.072Z,99.90
2019-05-11T21:51:29.312Z,99.90
2019-05-11T21:53:58.488Z,99.90
2019-05-11T21:56:28.809Z,99.90
2019-05-11T21:58:58.319Z,99.90
2019-05-11T22:01:28.132Z,99.90
2019-05-11T22:03:59.516Z,99.90
2019-05-11T22:06:30.530Z,99.90
2019-05-11T22:08:59.852Z,99.90
2019-05-11T22:11:29.027Z,99.90
2019-05-11T22:13:58.205Z,99.90
2019-05-11T22:16:29.850Z,99.90
2019-05-11T22:18:58.382Z,99.90
2019-05-11T22:21:28.045Z,99.90
2019-05-11T22:23:58.488Z,99.90
2019-05-11T22:26:28.590Z,99.90
2019-05-11T22:28:58.060Z,99.90
2019-05-11T22:31:28.076Z,99.90
2019-05-11T22:33:58.301Z,99.90
2019-05-11T22:36:28.385Z,99.90
2019-05-11T22:38:58.728Z,99.90
2019-05-11T22:41:28.309Z,99.90
2019-05-11T22:43:57.882Z,99.90
2019-05-11T22:46:28.087Z,99.90
2019-05-11T22:48:58.283Z,99.90
2019-05-11T22:51:28.836Z,99.90
2019-05-11T22:53:59.173Z,99.90
2019-05-11T22:56:28.915Z,99.90
2019-05-11T22:58:58.761Z,99.90
2019-05-11T23:01:28.835Z,99.90
2019-05-11T23:03:58.478Z,99.90
2019-05-11T23:06:27.765Z,99.90
2019-05-11T23:08:58.712Z,99.90
2019-05-11T23:11:34.467Z,99.90
2019-05-11T23:14:03.642Z,99.90
2019-05-11T23:16:32.880Z,99.90
2019-05-11T23:19:02.313Z,99.90
2019-05-11T23:21:31.570Z,99.90
2019-05-11T23:24:00.722Z,99.90
2019-05-11T23:26:30.542Z,99.90
2019-05-11T23:28:59.706Z,99.90
2019-05-11T23:31:28.865Z,99.90
2019-05-11T23:33:58.358Z,99.90
2019-05-11T23:36:28.292Z,99.90
2019-05-11T23:38:58.559Z,99.90
2019-05-11T23:41:28.797Z,99.90
2019-05-11T23:43:58.622Z,99.90
2019-05-11T23:46:28.636Z,99.90
2019-05-11T23:48:58.442Z,99.90
2019-05-11T23:51:28.411Z,99.90
2019-05-11T23:53:58.811Z,99.90
2019-05-11T23:56:28.379Z,99.90
2019-05-11T23:58:57.977Z,99.90
